createdAt,value
2023-05-14T00:01:54.061Z,101376.88
2023-05-14T00:04:39.631Z,101377.78
2023-05-14T00:07:31.895Z,101373.78
2023-05-14T00:10:18.948Z,101369.50
2023-05-14T00:13:04.495Z,101363.94
2023-05-14T00:15:49.376Z,101372.00
2023-05-14T00:18:34.646Z,101375.34
2023-05-14T00:21:19.371Z,101375.63
2023-05-14T00:24:04.670Z,101366.44
2023-05-14T00:26:49.767Z,101367.03
2023-05-14T00:29:35.017Z,101368.59
2023-05-14T00:32:20.086Z,101360.66
2023-05-14T00:35:05.660Z,101362.78
2023-05-14T00:37:50.874Z,101364.75
2023-05-14T00:40:36.306Z,101365.38
2023-05-14T00:43:22.556Z,101354.53
2023-05-14T00:46:07.850Z,101359.78
2023-05-14T00:48:53.692Z,101347.53
2023-05-14T00:51:42.354Z,101361.50
2023-05-14T00:54:28.030Z,101352.16
2023-05-14T00:57:13.363Z,101357.34
2023-05-14T00:59:59.438Z,101365.56
2023-05-14T01:02:44.654Z,101363.81
2023-05-14T01:05:41.223Z,101364.44
2023-05-14T01:08:32.793Z,101361.66
2023-05-14T01:11:24.613Z,101362.97
2023-05-14T01:14:42.195Z,101364.06
2023-05-14T01:17:30.322Z,101360.91
2023-05-14T01:20:16.210Z,101362.94
2023-05-14T01:23:01.599Z,101363.19
2023-05-14T01:25:46.636Z,101360.94
2023-05-14T01:28:36.622Z,101361.03
2023-05-14T01:31:27.822Z,101352.53
2023-05-14T01:34:14.563Z,101358.97
2023-05-14T01:37:00.572Z,101353.81
2023-05-14T01:39:46.789Z,101354.13
2023-05-14T01:42:32.208Z,101352.41
2023-05-14T01:45:20.304Z,101357.78
2023-05-14T01:48:05.769Z,101350.06
2023-05-14T01:50:51.346Z,101348.16
2023-05-14T01:53:36.256Z,101350.13
2023-05-14T01:56:23.653Z,101346.00
2023-05-14T01:59:08.497Z,101349.84
2023-05-14T02:01:53.509Z,101354.91
2023-05-14T02:04:38.522Z,101350.41
2023-05-14T02:07:23.422Z,101354.00
2023-05-14T02:10:09.290Z,101344.97
2023-05-14T02:12:54.465Z,101350.53
2023-05-14T02:15:39.670Z,101346.28
2023-05-14T02:18:25.766Z,101354.19
2023-05-14T02:21:10.887Z,101346.06
2023-05-14T02:23:56.269Z,101342.03
2023-05-14T02:26:42.075Z,101343.16
2023-05-14T02:29:27.783Z,101344.84
2023-05-14T02:32:13.147Z,101339.31
2023-05-14T02:34:58.572Z,101342.41
2023-05-14T02:37:43.421Z,101338.44
2023-05-14T02:40:28.466Z,101334.00
2023-05-14T02:43:13.296Z,101330.34
2023-05-14T02:45:58.208Z,101344.97
2023-05-14T02:48:43.160Z,101334.75
2023-05-14T02:51:28.516Z,101337.41
2023-05-14T02:54:13.342Z,101337.09
2023-05-14T02:56:58.173Z,101345.19
2023-05-14T02:59:42.953Z,101339.41
2023-05-14T03:02:28.294Z,101330.28
2023-05-14T03:05:14.249Z,101332.97
2023-05-14T03:08:00.840Z,101334.78
2023-05-14T03:10:45.873Z,101332.22
2023-05-14T03:13:31.028Z,101329.44
2023-05-14T03:16:15.914Z,101326.59
2023-05-14T03:19:00.825Z,101329.91
2023-05-14T03:21:46.171Z,101337.41
2023-05-14T03:24:31.617Z,101326.03
2023-05-14T03:27:16.988Z,101329.13
2023-05-14T03:30:03.130Z,101321.34
2023-05-14T03:32:48.053Z,101322.31
2023-05-14T03:35:33.141Z,101324.50
2023-05-14T03:38:18.072Z,101317.75
2023-05-14T03:41:03.393Z,101314.22
2023-05-14T03:43:48.317Z,101321.03
2023-05-14T03:46:33.204Z,101312.72
2023-05-14T03:49:18.980Z,101317.00
2023-05-14T03:52:04.070Z,101309.59
2023-05-14T03:54:49.223Z,101320.59
2023-05-14T03:57:34.226Z,101312.25
2023-05-14T04:00:19.302Z,101312.88
2023-05-14T04:03:04.430Z,101316.81
2023-05-14T04:05:51.152Z,101313.72
2023-05-14T04:08:36.024Z,101309.81
2023-05-14T04:11:22.436Z,101310.84
2023-05-14T04:14:07.667Z,101315.94
2023-05-14T04:16:52.788Z,101315.25
2023-05-14T04:19:37.884Z,101318.84
2023-05-14T04:22:23.481Z,101308.13
2023-05-14T04:25:08.595Z,101312.47
2023-05-14T04:27:54.255Z,101309.31
2023-05-14T04:30:39.234Z,101312.16
2023-05-14T04:33:24.409Z,101309.75
2023-05-14T04:36:09.306Z,101313.69
2023-05-14T04:38:54.195Z,101306.28
2023-05-14T04:41:39.029Z,101304.25
2023-05-14T04:44:23.904Z,101308.03
2023-05-14T04:47:08.731Z,101307.72
2023-05-14T04:49:53.518Z,101309.44
2023-05-14T04:52:39.182Z,101300.41
2023-05-14T04:55:24.295Z,101312.31
2023-05-14T04:58:09.285Z,101313.50
2023-05-14T05:00:54.192Z,101311.47
2023-05-14T05:03:39.219Z,101319.03
2023-05-14T05:06:24.041Z,101302.91
2023-05-14T05:09:09.791Z,101306.59
2023-05-14T05:11:54.874Z,101314.00
2023-05-14T05:14:39.750Z,101306.56
2023-05-14T05:17:25.300Z,101304.00
2023-05-14T05:20:11.046Z,101313.63
2023-05-14T05:22:56.257Z,101301.56
2023-05-14T05:25:41.132Z,101297.88
2023-05-14T05:28:26.163Z,101302.22
2023-05-14T05:31:11.380Z,101299.44
2023-05-14T05:33:57.672Z,101294.00
2023-05-14T05:36:42.757Z,101299.25
2023-05-14T05:39:27.560Z,101302.47
2023-05-14T05:42:12.266Z,101297.69
2023-05-14T05:44:57.331Z,101296.06
2023-05-14T05:47:42.968Z,101297.75
2023-05-14T05:50:27.766Z,101291.50
2023-05-14T05:53:12.993Z,101296.72
2023-05-14T05:55:57.849Z,101298.88
2023-05-14T05:58:42.640Z,101295.06
2023-05-14T06:01:27.551Z,101301.13
2023-05-14T06:04:13.045Z,101297.13
2023-05-14T06:06:58.325Z,101302.25
2023-05-14T06:09:43.607Z,101302.81
2023-05-14T06:12:28.467Z,101297.03
2023-05-14T06:15:13.352Z,101301.91
2023-05-14T06:17:58.371Z,101299.59
2023-05-14T06:20:43.144Z,101303.28
2023-05-14T06:23:28.353Z,101302.56
2023-05-14T06:26:13.190Z,101298.53
2023-05-14T06:28:58.442Z,101305.81
2023-05-14T06:31:43.548Z,101302.50
2023-05-14T06:34:28.591Z,101303.47
2023-05-14T06:37:13.414Z,101303.44
2023-05-14T06:39:58.944Z,101299.38
2023-05-14T06:42:44.152Z,101295.34
2023-05-14T06:45:32.435Z,101298.56
2023-05-14T06:48:19.363Z,101296.78
2023-05-14T06:51:04.963Z,101292.06
2023-05-14T06:53:50.234Z,101296.91
2023-05-14T06:56:35.352Z,101291.72
2023-05-14T06:59:21.865Z,101289.19
2023-05-14T07:02:07.240Z,101288.28
2023-05-14T07:04:52.429Z,101288.41
2023-05-14T07:07:37.641Z,101285.84
2023-05-14T07:10:22.952Z,101283.56
2023-05-14T07:13:08.493Z,101275.97
2023-05-14T07:15:55.923Z,101276.91
2023-05-14T07:18:41.474Z,101272.91
2023-05-14T07:21:26.317Z,101267.16
2023-05-14T07:24:11.086Z,101264.22
2023-05-14T07:26:57.183Z,101262.56
2023-05-14T07:29:42.890Z,101261.56
2023-05-14T07:32:28.148Z,101257.09
2023-05-14T07:35:14.325Z,101264.09
2023-05-14T07:37:59.602Z,101254.59
2023-05-14T07:40:45.338Z,101246.41
2023-05-14T07:43:30.113Z,101246.22
2023-05-14T07:46:15.110Z,101242.22
2023-05-14T07:48:59.878Z,101243.84
2023-05-14T07:51:46.903Z,101247.06
2023-05-14T07:54:32.160Z,101247.84
2023-05-14T07:57:17.494Z,101241.59
2023-05-14T08:00:02.615Z,101233.63
2023-05-14T08:02:49.192Z,101235.88
2023-05-14T08:05:34.303Z,101240.31
2023-05-14T08:08:19.227Z,101230.25
2023-05-14T08:11:04.814Z,101234.69
2023-05-14T08:13:49.929Z,101227.50
2023-05-14T08:16:34.773Z,101234.03
2023-05-14T08:19:20.143Z,101220.41
2023-05-14T08:22:07.657Z,101223.97
2023-05-14T08:24:52.982Z,101219.25
2023-05-14T08:27:37.875Z,101208.38
2023-05-14T08:30:23.567Z,101221.69
2023-05-14T08:33:08.591Z,101215.53
2023-05-14T08:35:53.969Z,101213.66
2023-05-14T08:38:38.902Z,101201.53
2023-05-14T08:41:24.151Z,101205.94
2023-05-14T08:44:19.200Z,101200.03
2023-05-14T08:47:05.132Z,101201.28
2023-05-14T08:50:04.555Z,101208.00
2023-05-14T08:52:52.233Z,101207.28
2023-05-14T08:55:38.568Z,101198.06
2023-05-14T08:58:26.824Z,101201.97
2023-05-14T09:01:14.640Z,101194.97
2023-05-14T09:04:01.461Z,101199.41
2023-05-14T09:06:53.797Z,101190.69
2023-05-14T09:09:39.972Z,101197.00
2023-05-14T09:12:25.283Z,101192.69
2023-05-14T09:15:10.908Z,101192.09
2023-05-14T09:17:57.000Z,101184.63
2023-05-14T09:20:42.123Z,101180.31
2023-05-14T09:23:27.851Z,101176.00
2023-05-14T09:26:17.072Z,101178.66
2023-05-14T09:29:03.192Z,101181.13
2023-05-14T09:31:52.021Z,101175.94
2023-05-14T09:34:37.947Z,101170.75
2023-05-14T09:37:26.268Z,101166.69
2023-05-14T09:40:13.113Z,101166.81
2023-05-14T09:42:58.753Z,101155.31
2023-05-14T09:45:43.970Z,101140.66
2023-05-14T09:48:29.931Z,101147.75
2023-05-14T09:51:17.761Z,101144.88
2023-05-14T09:54:04.536Z,101150.28
2023-05-14T09:56:49.737Z,101152.84
2023-05-14T09:59:35.864Z,101139.66
2023-05-14T10:02:25.582Z,101142.28
2023-05-14T10:05:12.997Z,101139.94
2023-05-14T10:08:00.535Z,101129.63
2023-05-14T10:10:45.832Z,101124.25
2023-05-14T10:13:38.185Z,101114.81
2023-05-14T10:16:34.269Z,101117.69
2023-05-14T10:19:22.937Z,101120.69
2023-05-14T10:22:12.659Z,101117.13
2023-05-14T10:24:58.324Z,101122.19
2023-05-14T10:27:43.803Z,101104.34
2023-05-14T10:30:28.784Z,101096.50
2023-05-14T10:33:16.419Z,101101.03
2023-05-14T10:36:05.630Z,101093.72
2023-05-14T10:38:56.992Z,101091.03
2023-05-14T10:41:42.673Z,101092.53
2023-05-14T10:44:28.023Z,101092.34
2023-05-14T10:47:13.968Z,101080.66
2023-05-14T10:50:02.483Z,101077.72
2023-05-14T10:52:49.109Z,101076.13
2023-05-14T10:55:36.008Z,101077.06
2023-05-14T10:58:24.288Z,101071.28
2023-05-14T11:01:10.803Z,101061.72
2023-05-14T11:03:58.496Z,101071.06
2023-05-14T11:06:45.251Z,101052.56
2023-05-14T11:09:30.425Z,101060.44
2023-05-14T11:12:17.022Z,101061.13
2023-05-14T11:15:05.768Z,101062.75
2023-05-14T11:17:51.692Z,101059.25
2023-05-14T11:20:37.493Z,101048.72
2023-05-14T11:23:25.205Z,101053.84
2023-05-14T11:26:11.397Z,101029.66
2023-05-14T11:28:56.255Z,101040.75
2023-05-14T11:31:42.639Z,101030.34
2023-05-14T11:34:29.321Z,101026.94
2023-05-14T11:37:15.007Z,101035.91
2023-05-14T11:40:01.329Z,101029.06
2023-05-14T11:42:46.386Z,101018.69
2023-05-14T11:45:33.308Z,101032.00
2023-05-14T11:48:19.046Z,101022.53
2023-05-14T11:51:04.549Z,101021.25
2023-05-14T11:53:49.814Z,101021.13
2023-05-14T11:56:35.093Z,101021.41
2023-05-14T11:59:20.300Z,101013.91
2023-05-14T12:02:08.354Z,101018.69
2023-05-14T12:04:53.836Z,101021.19
2023-05-14T12:07:39.817Z,101010.84
2023-05-14T12:10:25.756Z,101011.22
2023-05-14T12:13:14.816Z,101007.34
2023-05-14T12:16:02.336Z,101010.25
2023-05-14T12:18:49.127Z,100995.78
2023-05-14T12:21:36.187Z,101000.47
2023-05-14T12:24:21.350Z,100995.06
2023-05-14T12:27:07.911Z,100997.50
2023-05-14T12:32:55.403Z,100990.00
2023-05-14T12:35:41.041Z,100984.97
2023-05-14T12:38:26.178Z,100987.91
2023-05-14T12:41:11.567Z,100972.63
2023-05-14T12:43:59.032Z,100982.13
2023-05-14T12:46:44.261Z,100975.03
2023-05-14T12:49:29.409Z,100976.56
2023-05-14T12:52:22.692Z,100981.22
2023-05-14T12:55:18.182Z,100970.78
2023-05-14T12:58:03.306Z,100972.13
2023-05-14T13:00:48.171Z,100962.16
2023-05-14T13:03:34.247Z,100966.19
2023-05-14T13:06:29.893Z,100947.53
2023-05-14T13:09:15.127Z,100950.56
2023-05-14T13:12:00.623Z,100950.34
2023-05-14T13:14:45.599Z,100950.72
2023-05-14T13:17:30.614Z,100953.53
2023-05-14T13:20:17.668Z,100955.13
2023-05-14T13:23:02.831Z,100955.91
2023-05-14T13:25:49.728Z,100949.91
2023-05-14T13:28:35.190Z,100955.25
2023-05-14T13:31:20.520Z,100958.75
2023-05-14T13:34:06.028Z,100944.66
2023-05-14T13:36:51.011Z,100953.06
2023-05-14T13:39:36.506Z,100950.31
2023-05-14T13:42:21.741Z,100948.16
2023-05-14T13:45:07.655Z,100933.31
2023-05-14T13:47:53.326Z,100938.06
2023-05-14T13:50:38.439Z,100931.56
2023-05-14T13:53:24.498Z,100927.47
2023-05-14T13:56:09.536Z,100921.06
2023-05-14T13:58:56.168Z,100919.97
2023-05-14T14:01:43.142Z,100910.53
2023-05-14T14:04:28.978Z,100910.41
2023-05-14T14:07:14.162Z,100899.75
2023-05-14T14:10:01.744Z,100902.41
2023-05-14T14:12:46.653Z,100897.47
2023-05-14T14:15:31.832Z,100901.06
2023-05-14T14:18:19.271Z,100898.34
2023-05-14T14:21:04.673Z,100894.88
2023-05-14T14:23:49.874Z,100891.78
2023-05-14T14:26:34.737Z,100885.78
2023-05-14T14:29:21.751Z,100888.31
2023-05-14T14:32:07.819Z,100888.94
2023-05-14T14:34:56.307Z,100885.19
2023-05-14T14:37:43.281Z,100883.50
2023-05-14T14:40:28.512Z,100874.91
2023-05-14T14:43:13.400Z,100874.97
2023-05-14T14:45:59.963Z,100866.69
2023-05-14T14:48:45.798Z,100870.81
2023-05-14T14:51:31.255Z,100870.63
2023-05-14T14:54:16.216Z,100864.22
2023-05-14T14:57:01.397Z,100855.00
2023-05-14T14:59:46.844Z,100873.25
2023-05-14T15:02:31.907Z,100865.41
2023-05-14T15:05:17.096Z,100870.09
2023-05-14T15:08:02.010Z,100856.56
2023-05-14T15:10:47.345Z,100855.22
2023-05-14T15:13:32.755Z,100852.59
2023-05-14T15:16:17.922Z,100846.41
2023-05-14T15:19:02.688Z,100847.63
2023-05-14T15:21:47.929Z,100840.81
2023-05-14T15:24:47.142Z,100848.81
2023-05-14T15:27:36.715Z,100836.66
2023-05-14T15:33:27.767Z,100845.84
2023-05-14T15:36:13.405Z,100830.06
2023-05-14T15:38:59.576Z,100835.25
2023-05-14T15:41:45.512Z,100831.97
2023-05-14T15:44:30.898Z,100836.69
2023-05-14T15:47:15.963Z,100826.00
2023-05-14T15:50:01.084Z,100818.38
2023-05-14T15:52:47.557Z,100822.19
2023-05-14T15:55:34.784Z,100819.41
2023-05-14T15:58:19.896Z,100817.97
2023-05-14T16:01:05.629Z,100822.47
2023-05-14T16:03:52.315Z,100817.84
2023-05-14T16:06:41.378Z,100812.13
2023-05-14T16:09:26.658Z,100818.81
2023-05-14T16:12:13.621Z,100814.16
2023-05-14T16:14:59.831Z,100809.16
2023-05-14T16:17:44.906Z,100804.34
2023-05-14T16:20:29.852Z,100809.88
2023-05-14T16:23:14.653Z,100803.00
2023-05-14T16:25:59.889Z,100805.31
2023-05-14T16:28:45.198Z,100799.22
2023-05-14T16:31:31.483Z,100796.81
2023-05-14T16:34:16.638Z,100797.75
2023-05-14T16:37:02.265Z,100797.44
2023-05-14T16:39:47.732Z,100794.81
2023-05-14T16:42:32.788Z,100786.72
2023-05-14T16:45:18.063Z,100778.00
2023-05-14T16:48:04.332Z,100775.63
2023-05-14T16:50:49.873Z,100788.22
2023-05-14T16:53:34.818Z,100786.00
2023-05-14T16:56:19.613Z,100780.09
2023-05-14T16:59:04.591Z,100773.19
2023-05-14T17:01:50.059Z,100778.16
2023-05-14T17:04:38.872Z,100773.00
2023-05-14T17:07:24.638Z,100777.25
2023-05-14T17:10:09.866Z,100779.47
2023-05-14T17:12:55.435Z,100772.13
2023-05-14T17:15:42.365Z,100781.78
2023-05-14T17:18:27.715Z,100777.03
2023-05-14T17:21:13.702Z,100777.13
2023-05-14T17:23:59.491Z,100773.88
2023-05-14T17:26:45.070Z,100776.91
2023-05-14T17:29:29.977Z,100774.75
2023-05-14T17:32:15.331Z,100775.69
2023-05-14T17:35:00.723Z,100768.44
2023-05-14T17:37:45.811Z,100770.84
2023-05-14T17:40:30.802Z,100775.03
2023-05-14T17:43:15.788Z,100768.22
2023-05-14T17:46:01.205Z,100779.44
2023-05-14T17:48:47.425Z,100777.03
2023-05-14T17:51:32.386Z,100775.28
2023-05-14T17:54:25.120Z,100776.97
2023-05-14T17:57:10.652Z,100780.63
2023-05-14T17:59:55.893Z,100779.41
2023-05-14T18:02:42.198Z,100779.63
2023-05-14T18:05:28.944Z,100783.81
2023-05-14T18:08:17.328Z,100789.84
2023-05-14T18:11:02.420Z,100780.94
2023-05-14T18:13:47.381Z,100779.53
2023-05-14T18:16:32.399Z,100786.94
2023-05-14T18:19:19.376Z,100785.03
2023-05-14T18:22:04.678Z,100788.81
2023-05-14T18:24:49.753Z,100788.53
2023-05-14T18:27:35.031Z,100793.06
2023-05-14T18:30:20.034Z,100790.03
2023-05-14T18:33:07.998Z,100798.69
2023-05-14T18:35:54.550Z,100794.28
2023-05-14T18:38:41.175Z,100799.06
2023-05-14T18:41:26.667Z,100797.38
2023-05-14T18:44:11.720Z,100796.63
2023-05-14T18:46:57.115Z,100805.41
2023-05-14T18:49:43.230Z,100801.59
2023-05-14T18:52:31.959Z,100804.66
2023-05-14T18:55:17.172Z,100802.31
2023-05-14T18:58:03.669Z,100805.28
2023-05-14T19:00:48.567Z,100811.94
2023-05-14T19:03:38.583Z,100814.50
2023-05-14T19:06:25.895Z,100817.41
2023-05-14T19:09:10.885Z,100821.31
2023-05-14T19:11:55.811Z,100814.66
2023-05-14T19:14:43.760Z,100817.34
2023-05-14T19:17:32.677Z,100809.84
2023-05-14T19:20:17.916Z,100808.63
2023-05-14T19:23:03.157Z,100805.84
2023-05-14T19:25:50.343Z,100810.16
2023-05-14T19:28:37.813Z,100814.84
2023-05-14T19:31:25.134Z,100803.47
2023-05-14T19:34:10.390Z,100805.03
2023-05-14T19:36:57.623Z,100800.66
2023-05-14T19:39:46.317Z,100802.47
2023-05-14T19:42:31.934Z,100797.63
2023-05-14T19:45:20.304Z,100792.88
2023-05-14T19:48:06.390Z,100796.72
2023-05-14T19:50:52.711Z,100795.41
2023-05-14T19:53:44.396Z,100795.06
2023-05-14T19:56:30.651Z,100795.06
2023-05-14T19:59:15.942Z,100794.38
2023-05-14T20:02:01.718Z,100788.34
2023-05-14T20:04:47.559Z,100786.38
2023-05-14T20:07:33.306Z,100786.06
2023-05-14T20:10:21.798Z,100794.56
2023-05-14T20:13:10.156Z,100792.53
2023-05-14T20:15:55.842Z,100782.81
2023-05-14T20:18:43.483Z,100789.84
2023-05-14T20:21:29.973Z,100777.00
2023-05-14T20:24:16.264Z,100776.28
2023-05-14T20:27:01.909Z,100774.25
2023-05-14T20:29:46.987Z,100775.66
2023-05-14T20:32:33.294Z,100776.66
2023-05-14T20:35:19.021Z,100770.84
2023-05-14T20:38:04.097Z,100770.59
2023-05-14T20:40:49.297Z,100763.47
2023-05-14T20:43:34.246Z,100770.91
2023-05-14T20:46:21.357Z,100771.81
2023-05-14T20:49:06.315Z,100762.41
2023-05-14T20:51:51.210Z,100763.34
2023-05-14T20:54:36.734Z,100763.22
2023-05-14T20:57:24.756Z,100764.28
2023-05-14T21:00:12.417Z,100753.44
2023-05-14T21:02:59.916Z,100758.97
2023-05-14T21:05:45.093Z,100755.41
2023-05-14T21:08:33.037Z,100760.31
2023-05-14T21:11:18.723Z,100756.59
2023-05-14T21:14:04.679Z,100742.00
2023-05-14T21:16:50.076Z,100744.41
2023-05-14T21:19:34.840Z,100741.06
2023-05-14T21:22:22.498Z,100740.09
2023-05-14T21:25:07.532Z,100745.56
2023-05-14T21:27:52.662Z,100738.16
2023-05-14T21:30:37.596Z,100734.00
2023-05-14T21:33:23.945Z,100732.66
2023-05-14T21:36:09.708Z,100730.91
2023-05-14T21:38:55.092Z,100729.25
2023-05-14T21:41:40.889Z,100727.31
2023-05-14T21:44:26.003Z,100727.63
2023-05-14T21:47:11.367Z,100729.47
2023-05-14T21:49:56.339Z,100736.03
2023-05-14T21:52:41.483Z,100734.78
2023-05-14T21:55:27.680Z,100730.38
2023-05-14T21:58:12.905Z,100725.47
2023-05-14T22:00:59.843Z,100724.47
2023-05-14T22:03:44.976Z,100714.91
2023-05-14T22:06:30.827Z,100712.16
2023-05-14T22:09:15.840Z,100712.78
2023-05-14T22:12:03.061Z,100710.38
2023-05-14T22:14:47.889Z,100708.25
2023-05-14T22:17:34.892Z,100710.47
2023-05-14T22:20:19.753Z,100704.84
2023-05-14T22:23:04.945Z,100705.28
2023-05-14T22:25:49.753Z,100714.19
2023-05-14T22:28:34.622Z,100714.78
2023-05-14T22:31:19.912Z,100708.63
2023-05-14T22:34:05.282Z,100712.19
2023-05-14T22:36:50.209Z,100709.03
2023-05-14T22:39:35.027Z,100706.97
2023-05-14T22:42:20.630Z,100705.03
2023-05-14T22:45:05.955Z,100703.72
2023-05-14T22:47:51.380Z,100697.84
2023-05-14T22:50:37.029Z,100693.38
2023-05-14T22:53:21.878Z,100699.66
2023-05-14T22:56:07.055Z,100689.75
2023-05-14T22:58:52.133Z,100683.75
2023-05-14T23:01:37.510Z,100683.25
2023-05-14T23:04:23.002Z,100681.78
2023-05-14T23:07:07.934Z,100674.56
2023-05-14T23:09:53.091Z,100678.13
2023-05-14T23:12:37.900Z,100678.47
2023-05-14T23:15:22.816Z,100668.81
2023-05-14T23:18:08.592Z,100672.59
2023-05-14T23:20:53.425Z,100669.59
2023-05-14T23:23:38.609Z,100669.53
2023-05-14T23:26:23.614Z,100665.03
2023-05-14T23:29:09.318Z,100664.09
2023-05-14T23:31:54.002Z,100657.31
2023-05-14T23:34:39.284Z,100653.94
2023-05-14T23:37:24.407Z,100653.34
2023-05-14T23:40:09.992Z,100643.75
2023-05-14T23:42:54.712Z,100643.63
2023-05-14T23:45:39.952Z,100640.44
2023-05-14T23:48:25.676Z,100629.50
2023-05-14T23:51:10.438Z,100629.88
2023-05-14T23:53:58.817Z,100626.69
2023-05-14T23:56:44.309Z,100629.81
2023-05-14T23:59:29.876Z,100634.47
